createdAt,value
2023-04-09T00:00:02.659Z,2151.851
2023-04-09T00:05:02.556Z,2182.372
2023-04-09T00:10:02.744Z,2212.5660000000003
2023-04-09T00:15:02.707Z,2559.4790000000003
2023-04-09T00:20:02.795Z,1888.519
2023-04-09T00:25:02.704Z,183.875
2023-04-09T00:30:02.743Z,203.13
2023-04-09T00:35:02.762Z,288.016
2023-04-09T00:40:02.761Z,271.725
2023-04-09T00:45:02.678Z,241.092
2023-04-09T00:50:02.789Z,158.561
2023-04-09T00:55:02.785Z,158.661
2023-04-09T01:00:02.781Z,159.45000000000002
2023-04-09T01:05:02.759Z,160.275
2023-04-09T01:10:02.726Z,386.56100000000004
2023-04-09T01:15:02.678Z,2120.667
2023-04-09T01:20:02.632Z,2197.728
2023-04-09T01:25:04.065Z,1915.709
2023-04-09T01:30:02.651Z,2312.726
2023-04-09T01:35:02.740Z,2248.734
2023-04-09T01:40:02.650Z,2251.818
2023-04-09T01:45:02.659Z,2703.444
2023-04-09T01:50:02.714Z,1252.4
2023-04-09T01:55:02.689Z,159.067
2023-04-09T02:00:02.655Z,158.9
2023-04-09T02:05:02.694Z,186.425
2023-04-09T02:10:02.697Z,280.205
2023-04-09T02:15:02.674Z,271.57
2023-04-09T02:20:02.773Z,225.917
2023-04-09T02:25:02.732Z,159.15
2023-04-09T02:30:02.659Z,446.72700000000003
2023-04-09T02:35:02.692Z,2140.488
2023-04-09T02:40:02.701Z,2179.406
2023-04-09T02:45:02.741Z,2216.217
2023-04-09T02:50:02.823Z,2249.245
2023-04-09T02:55:02.770Z,2528.534
2023-04-09T03:00:02.732Z,2140.284
2023-04-09T03:05:02.795Z,2923.451
2023-04-09T03:10:02.745Z,182.604
2023-04-09T03:15:02.717Z,182.221
2023-04-09T03:20:02.823Z,181.853
2023-04-09T03:25:02.776Z,163.122
2023-04-09T03:30:02.815Z,158.257
2023-04-09T03:35:02.721Z,157.586
2023-04-09T03:40:02.753Z,215.26500000000001
2023-04-09T03:45:02.777Z,275.254
2023-04-09T03:50:02.831Z,606.205
2023-04-09T03:55:02.789Z,2176.601
2023-04-09T04:00:02.831Z,2139.327
2023-04-09T04:05:02.785Z,2169.474
2023-04-09T04:10:02.744Z,2189.768
2023-04-09T04:15:03.040Z,2231.775
2023-04-09T04:20:02.990Z,500.551
2023-04-09T04:25:03.923Z,187.437
2023-04-09T04:30:02.944Z,303.96
2023-04-09T04:35:01.269Z,288.297
2023-04-09T04:40:01.192Z,267.011
2023-04-09T04:45:01.214Z,159.689
2023-04-09T04:50:01.227Z,159.651
2023-04-09T04:55:01.304Z,1723.729
2023-04-09T05:00:01.226Z,2152.9790000000003
2023-04-09T05:05:01.268Z,2176.986
2023-04-09T05:10:01.227Z,2226.042
2023-04-09T05:15:01.312Z,1999.125
2023-04-09T05:20:01.273Z,2518.484
2023-04-09T05:25:01.312Z,2883.737
2023-04-09T05:30:01.261Z,600.962
2023-04-09T05:35:01.258Z,189.91400000000002
2023-04-09T05:40:01.217Z,194.773
2023-04-09T05:45:01.295Z,196.282
2023-04-09T05:50:01.304Z,195.942
2023-04-09T05:55:01.329Z,186.804
2023-04-09T06:00:01.584Z,186.129
2023-04-09T06:05:01.467Z,296.69
2023-04-09T06:10:01.503Z,298.045
2023-04-09T06:15:01.502Z,270.122
2023-04-09T06:20:01.465Z,161.168
2023-04-09T06:25:01.500Z,161.352
2023-04-09T06:30:01.423Z,602.9830000000001
2023-04-09T06:35:01.401Z,2155.523
2023-04-09T06:40:01.776Z,2165.4320000000002
2023-04-09T06:45:01.350Z,1996.613
2023-04-09T06:50:01.358Z,222.246
2023-04-09T06:55:01.350Z,279.745
2023-04-09T07:00:01.380Z,274.415
2023-04-09T07:05:01.477Z,235.067
2023-04-09T07:10:01.337Z,188.002
2023-04-09T07:15:01.383Z,186.478
2023-04-09T07:20:01.410Z,186.534
2023-04-09T07:25:04.010Z,170.903
2023-04-09T07:30:01.351Z,162.756
2023-04-09T07:35:01.636Z,163.39600000000002
2023-04-09T07:40:01.424Z,285.347
2023-04-09T07:45:01.380Z,278.455
2023-04-09T07:50:01.424Z,263.208
2023-04-09T07:55:01.383Z,165.04500000000002
2023-04-09T08:00:01.385Z,164.869
2023-04-09T08:05:01.457Z,164.577
2023-04-09T08:10:01.427Z,166.242
2023-04-09T08:15:01.426Z,189.109
2023-04-09T08:20:01.413Z,189.574
2023-04-09T08:25:02.754Z,252.57
2023-04-09T08:30:01.437Z,1641.007
2023-04-09T08:35:01.433Z,2322.166
2023-04-09T08:40:01.453Z,2398.006
2023-04-09T08:45:01.431Z,2883.42
2023-04-09T08:50:01.487Z,340.039
2023-04-09T08:55:03.136Z,167.391
2023-04-09T09:00:01.487Z,169.544
2023-04-09T09:05:01.742Z,196.189
2023-04-09T09:10:01.620Z,198.392
2023-04-09T09:15:01.632Z,313.443
2023-04-09T09:20:01.637Z,306.194
2023-04-09T09:25:01.673Z,279.685
2023-04-09T09:30:01.660Z,168.643
2023-04-09T09:35:01.581Z,171.637
2023-04-09T09:40:01.671Z,174.716
2023-04-09T09:45:01.653Z,175.838
2023-04-09T09:50:01.614Z,173.787
2023-04-09T09:55:01.694Z,171.02100000000002
2023-04-09T10:00:01.574Z,235.472
2023-04-09T10:05:01.578Z,297.42
2023-04-09T10:10:01.565Z,290.546
2023-04-09T10:15:01.600Z,217.48600000000002
2023-04-09T10:20:01.679Z,194.833
2023-04-09T10:25:01.584Z,192.755
2023-04-09T10:30:01.543Z,193.085
2023-04-09T10:35:01.493Z,197.481
2023-04-09T10:40:01.542Z,186.434
2023-04-09T10:45:01.534Z,194.407
2023-04-09T10:50:01.504Z,303.611
2023-04-09T10:55:01.597Z,294.323
2023-04-09T11:00:01.564Z,268.202
2023-04-09T11:05:01.708Z,182.596
2023-04-09T11:10:01.635Z,183.991
2023-04-09T11:15:01.579Z,180.486
2023-04-09T11:20:01.573Z,174.511
2023-04-09T11:25:01.632Z,171.80700000000002
2023-04-09T11:30:01.544Z,190.72
2023-04-09T11:35:01.585Z,286.781
2023-04-09T11:40:01.609Z,325.826
2023-04-09T11:45:01.568Z,317.793
2023-04-09T11:50:01.582Z,234.419
2023-04-09T11:55:02.344Z,198.00900000000001
2023-04-09T12:00:03.201Z,196.25300000000001
2023-04-09T12:05:01.791Z,195.273
2023-04-09T12:15:01.829Z,180.948
2023-04-09T12:20:01.657Z,191.924
2023-04-09T12:25:01.619Z,299.833
2023-04-09T12:30:01.626Z,287.27
2023-04-09T12:35:01.642Z,262.839
2023-04-09T12:40:01.625Z,174.707
2023-04-09T12:45:01.712Z,174.655
2023-04-09T12:50:01.622Z,170.792
2023-04-09T12:55:01.678Z,170.086
2023-04-09T13:00:01.661Z,170.193
2023-04-09T13:05:01.667Z,191.421
2023-04-09T13:10:01.674Z,280.37600000000003
2023-04-09T13:15:01.632Z,323.968
2023-04-09T13:20:01.754Z,315.447
2023-04-09T13:25:01.679Z,233.107
2023-04-09T13:30:01.683Z,181.548
2023-04-09T13:35:01.761Z,181.327
2023-04-09T13:40:01.684Z,181.236
2023-04-09T13:45:01.664Z,180.736
2023-04-09T13:50:01.823Z,180.215
2023-04-09T13:55:01.735Z,179.809
2023-04-09T14:00:01.715Z,300.051
2023-04-09T14:05:01.701Z,291.586
2023-04-09T14:10:01.727Z,279.444
2023-04-09T14:15:01.668Z,203.562
2023-04-09T14:20:01.811Z,208.95600000000002
2023-04-09T14:25:01.751Z,212.38400000000001
2023-04-09T14:30:01.675Z,212.47
2023-04-09T14:35:01.756Z,210.048
2023-04-09T14:40:01.789Z,201.228
2023-04-09T14:45:01.688Z,268.938
2023-04-09T14:50:01.849Z,314.27500000000003
2023-04-09T14:55:01.823Z,306.312
2023-04-09T15:00:01.730Z,209.987
2023-04-09T15:05:01.789Z,172.622
2023-04-09T15:10:01.751Z,172.314
2023-04-09T15:15:01.805Z,171.927
2023-04-09T15:20:01.807Z,170.571
2023-04-09T15:25:01.803Z,171.197
2023-04-09T15:30:01.769Z,183.543
2023-04-09T15:35:01.776Z,292.536
2023-04-09T15:40:01.754Z,282.354
2023-04-09T15:45:01.820Z,262.454
2023-04-09T15:50:01.901Z,195.195
2023-04-09T15:55:01.808Z,193.863
2023-04-09T16:00:01.757Z,192.358
2023-04-09T16:05:01.811Z,191.50900000000001
2023-04-09T16:10:01.811Z,174.112
2023-04-09T16:15:01.801Z,166.997
2023-04-09T16:20:01.828Z,239.45600000000002
2023-04-09T16:25:01.862Z,281.18
2023-04-09T16:30:01.844Z,273.951
2023-04-09T16:35:01.856Z,200.02
2023-04-09T16:40:01.891Z,167.665
2023-04-09T16:45:01.837Z,197.656
2023-04-09T16:50:01.833Z,199.524
2023-04-09T16:55:01.861Z,198.965
2023-04-09T17:00:01.828Z,194.499
2023-04-09T17:05:01.831Z,187.615
2023-04-09T17:10:01.813Z,309.986
2023-04-09T17:15:01.852Z,298.338
2023-04-09T17:20:01.919Z,274.698
2023-04-09T17:25:01.892Z,161.114
2023-04-09T17:30:01.882Z,161.088
2023-04-09T17:35:01.930Z,160.80700000000002
2023-04-09T17:40:01.904Z,160.8
2023-04-09T17:45:01.920Z,160.373
2023-04-09T17:50:01.880Z,328.59000000000003
2023-04-09T17:55:01.981Z,2099.867
2023-04-09T18:00:02.105Z,2091.1240000000003
2023-04-09T18:05:02.190Z,2257.92
2023-04-09T18:10:02.010Z,2317.219
2023-04-09T18:15:02.035Z,2691.443
2023-04-09T18:20:02.125Z,2818.55
2023-04-09T18:25:02.069Z,265.46
2023-04-09T18:30:01.984Z,179.123
2023-04-09T18:35:01.866Z,157.175
2023-04-09T18:40:02.708Z,155.508
2023-04-09T18:45:01.938Z,242.244
2023-04-09T18:50:01.950Z,270.833
2023-04-09T18:55:01.937Z,265.51300000000003
2023-04-09T19:00:01.961Z,179.304
2023-04-09T19:05:02.037Z,156.767
2023-04-09T19:10:01.979Z,156.071
2023-04-09T19:15:02.043Z,156.738
2023-04-09T19:20:02.053Z,156.996
2023-04-09T19:25:02.015Z,181.177
2023-04-09T19:30:01.961Z,200.638
2023-04-09T19:35:01.989Z,301.385
2023-04-09T19:40:02.005Z,1697.92
2023-04-09T19:45:02.013Z,2235.998
2023-04-09T19:50:02.153Z,2168.139
2023-04-09T19:55:02.207Z,2199.165
2023-04-09T20:00:02.251Z,2579.11
2023-04-09T20:05:02.195Z,1755.314
2023-04-09T20:10:02.090Z,157.246
2023-04-09T20:15:02.025Z,156.823
2023-04-09T20:20:02.062Z,241.763
2023-04-09T20:25:02.042Z,300.073
2023-04-09T20:30:02.033Z,292.072
2023-04-09T20:35:02.081Z,224.407
2023-04-09T20:40:02.094Z,171.292
2023-04-09T20:45:02.228Z,157.624
2023-04-09T20:50:02.097Z,157.651
2023-04-09T20:55:02.100Z,157.936
2023-04-09T21:00:02.139Z,158.05
2023-04-09T21:05:08.688Z,461.077
2023-04-09T21:10:02.117Z,2100.568
2023-04-09T21:15:02.067Z,2240.0080000000003
2023-04-09T21:20:02.035Z,2254.3070000000002
2023-04-09T21:25:02.312Z,2173.093
2023-04-09T21:30:02.161Z,2360.57
2023-04-09T21:35:02.043Z,2731.154
2023-04-09T21:40:02.112Z,182.898
2023-04-09T21:45:02.083Z,182.50900000000001
2023-04-09T21:50:02.241Z,182.197
2023-04-09T21:55:02.296Z,216.924
2023-04-09T22:00:02.283Z,276.646
2023-04-09T22:05:02.274Z,268.48
2023-04-09T22:10:02.190Z,222.031
2023-04-09T22:15:02.274Z,158.298
2023-04-09T22:20:02.131Z,158.407
2023-04-09T22:25:02.188Z,158.085
2023-04-09T22:30:02.137Z,158.556
2023-04-09T22:35:02.150Z,1702.338
2023-04-09T22:40:02.223Z,2122.7
2023-04-09T22:45:02.167Z,2236.446
2023-04-09T22:50:02.155Z,2319.234
2023-04-09T22:55:02.218Z,2129.9610000000002
2023-04-09T23:00:02.125Z,2713.457
2023-04-09T23:05:02.275Z,1588.952
2023-04-09T23:10:02.216Z,183.702
2023-04-09T23:15:02.196Z,181.841
2023-04-09T23:20:02.251Z,181.056
2023-04-09T23:25:02.193Z,180.583
2023-04-09T23:30:02.222Z,200.92600000000002
2023-04-09T23:35:02.172Z,278.237
2023-04-09T23:40:02.171Z,269.585
2023-04-09T23:45:02.202Z,229.321
2023-04-09T23:50:02.249Z,184.07500000000002
2023-04-09T23:55:02.236Z,2109.611
